sensor_id;sensor_type;location;lat;lon;timestamp;temperature;humidity
44695;DHT22;32845;59.422;17.930;2022-09-03T00:06:57;6.30;99.90
44695;DHT22;32845;59.422;17.930;2022-09-03T00:11:30;6.20;99.90
44695;DHT22;32845;59.422;17.930;2022-09-03T00:16:08;6.20;99.90
44695;DHT22;32845;59.422;17.930;2022-09-03T00:20:53;6.20;99.90
44695;DHT22;32845;59.422;17.930;2022-09-03T00:25:32;6.40;99.90
44695;DHT22;32845;59.422;17.930;2022-09-03T00:30:09;6.40;99.90
44695;DHT22;32845;59.422;17.930;2022-09-03T00:34:48;6.50;99.90
44695;DHT22;32845;59.422;17.930;2022-09-03T00:39:22;6.50;99.90
44695;DHT22;32845;59.422;17.930;2022-09-03T00:44:13;6.50;99.90
44695;DHT22;32845;59.422;17.930;2022-09-03T00:49:00;6.50;99.90
44695;DHT22;32845;59.422;17.930;2022-09-03T00:54:06;6.60;99.90
44695;DHT22;32845;59.422;17.930;2022-09-03T01:04:27;6.60;99.90
44695;DHT22;32845;59.422;17.930;2022-09-03T01:13:16;6.80;99.90
44695;DHT22;32845;59.422;17.930;2022-09-03T01:18:22;6.80;99.90
44695;DHT22;32845;59.422;17.930;2022-09-03T01:23:30;6.80;99.90
44695;DHT22;32845;59.422;17.930;2022-09-03T01:28:16;6.90;99.90
44695;DHT22;32845;59.422;17.930;2022-09-03T01:37:41;7.00;99.90
44695;DHT22;32845;59.422;17.930;2022-09-03T02:01:53;7.30;99.90
44695;DHT22;32845;59.422;17.930;2022-09-03T02:06:27;7.30;99.90
44695;DHT22;32845;59.422;17.930;2022-09-03T02:10:59;7.40;99.90
44695;DHT22;32845;59.422;17.930;2022-09-03T02:15:32;7.50;99.90
44695;DHT22;32845;59.422;17.930;2022-09-03T02:20:08;7.50;99.90
44695;DHT22;32845;59.422;17.930;2022-09-03T02:24:41;7.50;99.90
44695;DHT22;32845;59.422;17.930;2022-09-03T02:29:17;7.60;99.90
44695;DHT22;32845;59.422;17.930;2022-09-03T02:33:49;7.60;99.90
44695;DHT22;32845;59.422;17.930;2022-09-03T02:38:22;7.60;99.90
44695;DHT22;32845;59.422;17.930;2022-09-03T02:42:55;7.60;99.90
44695;DHT22;32845;59.422;17.930;2022-09-03T02:47:30;7.60;99.90
44695;DHT22;32845;59.422;17.930;2022-09-03T02:52:04;7.70;99.90
44695;DHT22;32845;59.422;17.930;2022-09-03T02:56:36;7.70;99.90
44695;DHT22;32845;59.422;17.930;2022-09-03T03:01:07;7.70;99.90
44695;DHT22;32845;59.422;17.930;2022-09-03T03:05:42;7.80;99.90
44695;DHT22;32845;59.422;17.930;2022-09-03T03:10:18;7.80;99.90
44695;DHT22;32845;59.422;17.930;2022-09-03T03:14:48;7.80;99.90
44695;DHT22;32845;59.422;17.930;2022-09-03T03:19:19;7.90;99.90
44695;DHT22;32845;59.422;17.930;2022-09-03T03:23:50;7.90;99.90
44695;DHT22;32845;59.422;17.930;2022-09-03T03:28:32;7.90;99.90
44695;DHT22;32845;59.422;17.930;2022-09-03T03:33:03;7.90;99.90
44695;DHT22;32845;59.422;17.930;2022-09-03T03:37:35;7.90;99.90
44695;DHT22;32845;59.422;17.930;2022-09-03T03:42:06;8.00;99.90
44695;DHT22;32845;59.422;17.930;2022-09-03T03:46:39;8.00;99.90
44695;DHT22;32845;59.422;17.930;2022-09-03T03:51:10;8.10;99.90
44695;DHT22;32845;59.422;17.930;2022-09-03T03:55:41;8.10;99.90
44695;DHT22;32845;59.422;17.930;2022-09-03T04:00:12;8.10;99.90
44695;DHT22;32845;59.422;17.930;2022-09-03T04:04:43;8.10;99.90
44695;DHT22;32845;59.422;17.930;2022-09-03T04:09:14;8.10;99.90
44695;DHT22;32845;59.422;17.930;2022-09-03T04:13:45;8.10;99.90
44695;DHT22;32845;59.422;17.930;2022-09-03T04:18:25;8.10;99.90
44695;DHT22;32845;59.422;17.930;2022-09-03T04:22:59;8.20;99.90
44695;DHT22;32845;59.422;17.930;2022-09-03T04:27:35;8.20;99.90
44695;DHT22;32845;59.422;17.930;2022-09-03T04:32:06;8.30;99.90
44695;DHT22;32845;59.422;17.930;2022-09-03T04:36:55;8.40;99.90
44695;DHT22;32845;59.422;17.930;2022-09-03T04:41:29;8.40;99.90
44695;DHT22;32845;59.422;17.930;2022-09-03T04:46:03;8.40;99.90
44695;DHT22;32845;59.422;17.930;2022-09-03T04:50:39;8.50;99.90
44695;DHT22;32845;59.422;17.930;2022-09-03T04:55:09;8.60;99.90
44695;DHT22;32845;59.422;17.930;2022-09-03T04:59:45;8.60;99.90
44695;DHT22;32845;59.422;17.930;2022-09-03T05:04:16;8.60;99.90
44695;DHT22;32845;59.422;17.930;2022-09-03T05:08:48;8.70;99.90
44695;DHT22;32845;59.422;17.930;2022-09-03T05:13:19;8.80;99.90
44695;DHT22;32845;59.422;17.930;2022-09-03T05:17:55;8.80;99.90
44695;DHT22;32845;59.422;17.930;2022-09-03T05:22:25;8.90;99.90
44695;DHT22;32845;59.422;17.930;2022-09-03T05:26:56;9.00;99.90
44695;DHT22;32845;59.422;17.930;2022-09-03T05:31:29;9.00;99.90
44695;DHT22;32845;59.422;17.930;2022-09-03T05:36:02;9.10;99.90
44695;DHT22;32845;59.422;17.930;2022-09-03T05:40:39;9.10;99.90
44695;DHT22;32845;59.422;17.930;2022-09-03T05:45:10;9.30;99.90
44695;DHT22;32845;59.422;17.930;2022-09-03T05:49:51;9.30;99.90
44695;DHT22;32845;59.422;17.930;2022-09-03T05:54:22;9.40;99.90
44695;DHT22;32845;59.422;17.930;2022-09-03T05:58:59;9.40;99.90
44695;DHT22;32845;59.422;17.930;2022-09-03T06:03:30;9.50;99.90
44695;DHT22;32845;59.422;17.930;2022-09-03T06:08:01;9.60;99.90
44695;DHT22;32845;59.422;17.930;2022-09-03T06:12:32;9.60;99.90
44695;DHT22;32845;59.422;17.930;2022-09-03T06:17:03;9.70;99.90
44695;DHT22;32845;59.422;17.930;2022-09-03T06:21:35;9.80;99.90
44695;DHT22;32845;59.422;17.930;2022-09-03T06:26:10;9.90;99.90
44695;DHT22;32845;59.422;17.930;2022-09-03T06:30:45;10.00;99.90
44695;DHT22;32845;59.422;17.930;2022-09-03T06:35:17;10.10;99.90
44695;DHT22;32845;59.422;17.930;2022-09-03T06:39:48;10.10;99.90
44695;DHT22;32845;59.422;17.930;2022-09-03T06:44:20;10.10;99.90
44695;DHT22;32845;59.422;17.930;2022-09-03T06:48:56;10.20;99.90
44695;DHT22;32845;59.422;17.930;2022-09-03T06:53:30;10.20;99.90
44695;DHT22;32845;59.422;17.930;2022-09-03T06:58:05;10.30;99.90
44695;DHT22;32845;59.422;17.930;2022-09-03T07:02:36;10.30;99.90
44695;DHT22;32845;59.422;17.930;2022-09-03T07:07:08;10.40;99.90
44695;DHT22;32845;59.422;17.930;2022-09-03T07:11:43;10.40;99.90
44695;DHT22;32845;59.422;17.930;2022-09-03T07:16:39;10.50;99.90
44695;DHT22;32845;59.422;17.930;2022-09-03T07:21:11;10.60;99.90
44695;DHT22;32845;59.422;17.930;2022-09-03T07:25:42;10.70;99.90
44695;DHT22;32845;59.422;17.930;2022-09-03T07:30:13;10.80;99.90
44695;DHT22;32845;59.422;17.930;2022-09-03T07:34:43;10.90;99.90
44695;DHT22;32845;59.422;17.930;2022-09-03T07:39:15;11.00;99.90
44695;DHT22;32845;59.422;17.930;2022-09-03T07:43:47;11.00;99.90
44695;DHT22;32845;59.422;17.930;2022-09-03T07:48:18;11.10;99.90
44695;DHT22;32845;59.422;17.930;2022-09-03T07:52:49;11.10;99.90
44695;DHT22;32845;59.422;17.930;2022-09-03T07:57:19;11.20;99.90
44695;DHT22;32845;59.422;17.930;2022-09-03T08:01:50;11.20;99.90
44695;DHT22;32845;59.422;17.930;2022-09-03T08:06:23;11.20;99.90
44695;DHT22;32845;59.422;17.930;2022-09-03T08:11:12;11.30;99.90
44695;DHT22;32845;59.422;17.930;2022-09-03T08:15:53;11.30;99.90
44695;DHT22;32845;59.422;17.930;2022-09-03T08:20:24;11.30;99.90
44695;DHT22;32845;59.422;17.930;2022-09-03T08:24:55;11.30;99.90
44695;DHT22;32845;59.422;17.930;2022-09-03T08:29:25;11.30;99.90
44695;DHT22;32845;59.422;17.930;2022-09-03T08:33:58;11.40;99.90
44695;DHT22;32845;59.422;17.930;2022-09-03T08:38:31;11.40;99.90
44695;DHT22;32845;59.422;17.930;2022-09-03T08:43:06;11.50;99.90
44695;DHT22;32845;59.422;17.930;2022-09-03T08:48:04;11.50;99.90
44695;DHT22;32845;59.422;17.930;2022-09-03T08:52:49;11.50;99.90
44695;DHT22;32845;59.422;17.930;2022-09-03T08:57:39;11.50;99.90
44695;DHT22;32845;59.422;17.930;2022-09-03T09:02:37;11.50;99.90
44695;DHT22;32845;59.422;17.930;2022-09-03T09:07:31;11.50;99.90
44695;DHT22;32845;59.422;17.930;2022-09-03T09:22:00;11.60;99.90
44695;DHT22;32845;59.422;17.930;2022-09-03T09:26:32;11.70;99.90
44695;DHT22;32845;59.422;17.930;2022-09-03T09:31:05;11.70;99.90
44695;DHT22;32845;59.422;17.930;2022-09-03T09:35:37;11.80;99.90
44695;DHT22;32845;59.422;17.930;2022-09-03T09:40:37;11.90;99.90
44695;DHT22;32845;59.422;17.930;2022-09-03T09:45:09;12.00;99.90
44695;DHT22;32845;59.422;17.930;2022-09-03T09:54:24;12.20;99.90
44695;DHT22;32845;59.422;17.930;2022-09-03T09:59:13;12.30;99.90
44695;DHT22;32845;59.422;17.930;2022-09-03T10:04:09;12.40;99.90
44695;DHT22;32845;59.422;17.930;2022-09-03T10:08:45;12.40;99.90
44695;DHT22;32845;59.422;17.930;2022-09-03T10:13:19;12.50;99.90
44695;DHT22;32845;59.422;17.930;2022-09-03T10:22:55;12.60;99.90
44695;DHT22;32845;59.422;17.930;2022-09-03T10:27:28;12.70;99.90
44695;DHT22;32845;59.422;17.930;2022-09-03T10:32:53;12.70;99.90
44695;DHT22;32845;59.422;17.930;2022-09-03T10:46:10;12.90;99.90
44695;DHT22;32845;59.422;17.930;2022-09-03T10:51:25;13.10;99.90
44695;DHT22;32845;59.422;17.930;2022-09-03T10:56:21;13.20;99.90
44695;DHT22;32845;59.422;17.930;2022-09-03T11:02:07;13.40;99.90
44695;DHT22;32845;59.422;17.930;2022-09-03T11:06:07;13.60;99.90
44695;DHT22;32845;59.422;17.930;2022-09-03T11:10:48;13.70;99.90
44695;DHT22;32845;59.422;17.930;2022-09-03T11:15:30;13.70;99.90
44695;DHT22;32845;59.422;17.930;2022-09-03T11:20:35;13.80;99.90
44695;DHT22;32845;59.422;17.930;2022-09-03T11:25:07;13.80;99.90
44695;DHT22;32845;59.422;17.930;2022-09-03T11:29:52;13.80;99.90
44695;DHT22;32845;59.422;17.930;2022-09-03T11:34:58;13.80;99.90
44695;DHT22;32845;59.422;17.930;2022-09-03T11:44:17;13.80;99.90
44695;DHT22;32845;59.422;17.930;2022-09-03T11:48:55;13.90;99.90
44695;DHT22;32845;59.422;17.930;2022-09-03T11:53:32;13.90;99.90
44695;DHT22;32845;59.422;17.930;2022-09-03T12:03:01;13.90;99.90
44695;DHT22;32845;59.422;17.930;2022-09-03T12:18:04;13.80;99.90
44695;DHT22;32845;59.422;17.930;2022-09-03T12:22:48;13.80;99.90
44695;DHT22;32845;59.422;17.930;2022-09-03T12:27:20;13.90;99.90
44695;DHT22;32845;59.422;17.930;2022-09-03T12:31:54;14.00;99.90
44695;DHT22;32845;59.422;17.930;2022-09-03T12:36:43;14.10;99.90
44695;DHT22;32845;59.422;17.930;2022-09-03T12:41:23;14.20;99.90
44695;DHT22;32845;59.422;17.930;2022-09-03T12:45:55;14.20;99.90
44695;DHT22;32845;59.422;17.930;2022-09-03T12:50:26;14.20;99.90
44695;DHT22;32845;59.422;17.930;2022-09-03T12:59:34;14.30;99.90
44695;DHT22;32845;59.422;17.930;2022-09-03T13:04:16;14.20;99.90
44695;DHT22;32845;59.422;17.930;2022-09-03T13:08:56;14.20;99.90
44695;DHT22;32845;59.422;17.930;2022-09-03T13:13:30;14.20;99.90
44695;DHT22;32845;59.422;17.930;2022-09-03T13:18:18;14.10;99.90
44695;DHT22;32845;59.422;17.930;2022-09-03T13:23:14;14.10;99.90
44695;DHT22;32845;59.422;17.930;2022-09-03T13:28:14;14.10;99.90
44695;DHT22;32845;59.422;17.930;2022-09-03T13:33:18;14.10;99.90
44695;DHT22;32845;59.422;17.930;2022-09-03T13:37:57;14.10;99.90
44695;DHT22;32845;59.422;17.930;2022-09-03T13:43:05;14.20;99.90
44695;DHT22;32845;59.422;17.930;2022-09-03T13:47:47;14.20;99.90
44695;DHT22;32845;59.422;17.930;2022-09-03T13:53:14;14.20;99.90
44695;DHT22;32845;59.422;17.930;2022-09-03T14:03:16;14.30;99.90
44695;DHT22;32845;59.422;17.930;2022-09-03T14:12:49;14.60;99.90
44695;DHT22;32845;59.422;17.930;2022-09-03T14:17:59;14.60;99.90
44695;DHT22;32845;59.422;17.930;2022-09-03T14:23:04;14.50;99.90
44695;DHT22;32845;59.422;17.930;2022-09-03T14:27:36;14.50;99.90
44695;DHT22;32845;59.422;17.930;2022-09-03T14:32:31;14.40;99.90
44695;DHT22;32845;59.422;17.930;2022-09-03T14:37:16;14.40;99.90
44695;DHT22;32845;59.422;17.930;2022-09-03T15:00:35;14.30;99.90
44695;DHT22;32845;59.422;17.930;2022-09-03T15:14:52;14.00;99.90
44695;DHT22;32845;59.422;17.930;2022-09-03T15:19:42;14.00;99.90
44695;DHT22;32845;59.422;17.930;2022-09-03T15:24:33;13.90;99.90
44695;DHT22;32845;59.422;17.930;2022-09-03T15:34:11;13.80;99.90
44695;DHT22;32845;59.422;17.930;2022-09-03T15:43:33;13.70;99.90
44695;DHT22;32845;59.422;17.930;2022-09-03T15:53:32;13.50;99.90
44695;DHT22;32845;59.422;17.930;2022-09-03T16:03:00;13.40;99.90
44695;DHT22;32845;59.422;17.930;2022-09-03T16:12:39;13.40;99.90
44695;DHT22;32845;59.422;17.930;2022-09-03T16:22:07;13.30;99.90
44695;DHT22;32845;59.422;17.930;2022-09-03T16:40:54;13.10;99.90
44695;DHT22;32845;59.422;17.930;2022-09-03T17:06:00;12.90;99.90
44695;DHT22;32845;59.422;17.930;2022-09-03T17:10:50;12.90;99.90
44695;DHT22;32845;59.422;17.930;2022-09-03T17:15:48;12.90;99.90
44695;DHT22;32845;59.422;17.930;2022-09-03T17:20:33;12.80;99.90
44695;DHT22;32845;59.422;17.930;2022-09-03T17:25:20;12.80;99.90
44695;DHT22;32845;59.422;17.930;2022-09-03T17:30:18;12.80;99.90
44695;DHT22;32845;59.422;17.930;2022-09-03T17:40:06;12.70;99.90
44695;DHT22;32845;59.422;17.930;2022-09-03T17:44:53;12.60;99.90
44695;DHT22;32845;59.422;17.930;2022-09-03T17:49:33;12.60;99.90
44695;DHT22;32845;59.422;17.930;2022-09-03T17:59:01;12.50;99.90
44695;DHT22;32845;59.422;17.930;2022-09-03T18:03:59;12.50;99.90
44695;DHT22;32845;59.422;17.930;2022-09-03T18:08:59;12.40;99.90
44695;DHT22;32845;59.422;17.930;2022-09-03T18:13:57;12.40;99.90
44695;DHT22;32845;59.422;17.930;2022-09-03T18:18:43;12.40;99.90
44695;DHT22;32845;59.422;17.930;2022-09-03T18:28:47;12.30;99.90
44695;DHT22;32845;59.422;17.930;2022-09-03T18:33:36;12.30;99.90
44695;DHT22;32845;59.422;17.930;2022-09-03T18:38:29;12.30;99.90
44695;DHT22;32845;59.422;17.930;2022-09-03T18:48:29;12.20;99.90
44695;DHT22;32845;59.422;17.930;2022-09-03T18:53:34;12.10;99.90
44695;DHT22;32845;59.422;17.930;2022-09-03T19:04:04;12.00;99.90
44695;DHT22;32845;59.422;17.930;2022-09-03T19:14:04;11.90;99.90
44695;DHT22;32845;59.422;17.930;2022-09-03T19:24:07;11.80;99.90
44695;DHT22;32845;59.422;17.930;2022-09-03T19:29:04;11.80;99.90
44695;DHT22;32845;59.422;17.930;2022-09-03T19:44:51;11.80;99.90
44695;DHT22;32845;59.422;17.930;2022-09-03T19:50:09;11.80;99.90
44695;DHT22;32845;59.422;17.930;2022-09-03T19:54:59;11.70;99.90
44695;DHT22;32845;59.422;17.930;2022-09-03T19:59:51;11.70;99.90
44695;DHT22;32845;59.422;17.930;2022-09-03T20:04:45;11.70;99.90
44695;DHT22;32845;59.422;17.930;2022-09-03T20:09:40;11.70;99.90
44695;DHT22;32845;59.422;17.930;2022-09-03T20:14:33;11.60;99.90
44695;DHT22;32845;59.422;17.930;2022-09-03T20:44:10;11.60;99.90
44695;DHT22;32845;59.422;17.930;2022-09-03T20:48:52;11.50;99.90
44695;DHT22;32845;59.422;17.930;2022-09-03T21:23:11;11.30;99.90
44695;DHT22;32845;59.422;17.930;2022-09-03T21:27:50;11.30;99.90
44695;DHT22;32845;59.422;17.930;2022-09-03T21:32:28;11.30;99.90
44695;DHT22;32845;59.422;17.930;2022-09-03T21:37:03;11.30;99.90
44695;DHT22;32845;59.422;17.930;2022-09-03T21:41:52;11.30;99.90
44695;DHT22;32845;59.422;17.930;2022-09-03T21:46:26;11.30;99.90
44695;DHT22;32845;59.422;17.930;2022-09-03T21:51:03;11.30;99.90
44695;DHT22;32845;59.422;17.930;2022-09-03T22:00:18;11.20;99.90
44695;DHT22;32845;59.422;17.930;2022-09-03T22:04:59;11.20;99.90
44695;DHT22;32845;59.422;17.930;2022-09-03T22:10:17;11.20;99.90
44695;DHT22;32845;59.422;17.930;2022-09-03T22:14:52;11.20;99.90
44695;DHT22;32845;59.422;17.930;2022-09-03T22:19:25;11.20;99.90
44695;DHT22;32845;59.422;17.930;2022-09-03T22:24:11;11.20;99.90
44695;DHT22;32845;59.422;17.930;2022-09-03T22:29:07;11.20;99.90
44695;DHT22;32845;59.422;17.930;2022-09-03T22:33:56;11.20;99.90
44695;DHT22;32845;59.422;17.930;2022-09-03T22:43:35;11.20;99.90
44695;DHT22;32845;59.422;17.930;2022-09-03T22:48:17;11.10;99.90
44695;DHT22;32845;59.422;17.930;2022-09-03T22:53:19;11.10;99.90
44695;DHT22;32845;59.422;17.930;2022-09-03T22:57:56;11.10;99.90
44695;DHT22;32845;59.422;17.930;2022-09-03T23:02:29;11.00;99.90
44695;DHT22;32845;59.422;17.930;2022-09-03T23:07:29;11.00;99.90
44695;DHT22;32845;59.422;17.930;2022-09-03T23:12:06;11.00;99.90
44695;DHT22;32845;59.422;17.930;2022-09-03T23:16:59;11.00;99.90
44695;DHT22;32845;59.422;17.930;2022-09-03T23:21:38;11.00;99.90
44695;DHT22;32845;59.422;17.930;2022-09-03T23:26:25;11.00;99.90
44695;DHT22;32845;59.422;17.930;2022-09-03T23:36:03;10.90;99.90
44695;DHT22;32845;59.422;17.930;2022-09-03T23:40:39;10.90;99.90
44695;DHT22;32845;59.422;17.930;2022-09-03T23:45:21;10.90;99.90
44695;DHT22;32845;59.422;17.930;2022-09-03T23:54:51;10.90;99.90
44695;DHT22;32845;59.422;17.930;2022-09-03T23:59:52;10.90;99.90
